Time;durP1;ratioP1;P1;durP2;ratioP2;P2;SDS_P1;SDS_P2;PMS_P1;PMS_P2;Temp;Humidity;BMP_temperature;BMP_pressure;BME280_temperature;BME280_humidity;BME280_pressure;Samples;Min_cycle;Max_cycle;Signal;HPM_P1;HPM_P2
2020/12/03 00:00:29;;;;;;;87.77;43.13;;;;;;;2.34;100.00;100902.81;4695438;30;20049;-96
2020/12/03 00:03:00;;;;;;;87.83;44.20;;;;;;;2.38;100.00;100901.91;4711327;30;20575;-95
2020/12/03 00:05:39;;;;;;;84.33;42.03;;;;;;;2.46;100.00;100896.50;4700253;30;20077;-95
2020/12/03 00:08:07;;;;;;;87.67;41.17;;;;;;;2.43;100.00;100883.31;4704343;30;20076;-95
2020/12/03 00:10:38;;;;;;;89.05;44.45;;;;;;;2.35;100.00;100887.84;4701880;30;20041;-94
2020/12/03 00:13:20;;;;;;;89.80;42.90;;;;;;;2.39;100.00;100882.50;4705522;30;20374;-96
2020/12/03 00:15:56;;;;;;;91.80;46.03;;;;;;;2.34;100.00;100878.16;4693881;30;20144;-95
2020/12/03 00:18:24;;;;;;;93.17;45.07;;;;;;;2.33;100.00;100865.84;4704828;30;20681;-93
2020/12/03 00:20:52;;;;;;;94.30;46.93;;;;;;;2.44;100.00;100863.91;4721026;30;20198;-95
2020/12/03 00:23:21;;;;;;;94.93;45.03;;;;;;;2.48;100.00;100855.03;4737637;30;20061;-94
2020/12/03 00:25:51;;;;;;;95.43;45.53;;;;;;;2.39;100.00;100858.72;4721697;30;20520;-95
2020/12/03 00:28:18;;;;;;;93.15;44.17;;;;;;;2.27;100.00;100858.00;4735339;30;20056;-95
2020/12/03 00:30:46;;;;;;;89.07;44.63;;;;;;;2.23;100.00;100859.84;4736020;30;20388;-94
2020/12/03 00:33:17;;;;;;;102.37;46.93;;;;;;;2.22;100.00;100858.09;4730736;30;20112;-95
2020/12/03 00:35:45;;;;;;;104.93;48.20;;;;;;;2.13;100.00;100845.91;4736460;30;20136;-95
2020/12/03 00:38:14;;;;;;;104.77;48.13;;;;;;;2.17;100.00;100836.16;4722633;30;20049;-94
2020/12/03 00:40:42;;;;;;;109.43;51.20;;;;;;;2.14;100.00;100841.50;4724935;30;20067;-95
2020/12/03 00:43:11;;;;;;;102.57;48.00;;;;;;;2.23;100.00;100837.81;4736823;30;20113;-95
2020/12/03 00:45:39;;;;;;;112.33;51.03;;;;;;;2.19;100.00;100830.84;4731002;30;20088;-96
2020/12/03 00:48:07;;;;;;;109.90;49.33;;;;;;;2.20;100.00;100822.03;4725983;30;20053;-95
2020/12/03 00:50:36;;;;;;;115.83;50.07;;;;;;;2.21;100.00;100824.66;4741737;30;20171;-94
2020/12/03 00:53:03;;;;;;;100.17;48.67;;;;;;;2.16;100.00;100808.00;4721884;30;20072;-91
2020/12/03 00:55:32;;;;;;;104.53;48.13;;;;;;;2.29;100.00;100801.63;4723170;30;20048;-94
2020/12/03 00:58:07;;;;;;;106.53;47.00;;;;;;;2.21;100.00;100795.59;4735871;30;20045;-94
2020/12/03 01:00:37;;;;;;;106.80;46.20;;;;;;;2.28;100.00;100794.59;4724215;30;20116;-94
2020/12/03 01:03:12;;;;;;;104.67;48.00;;;;;;;2.26;100.00;100783.19;4719363;30;20056;-95
2020/12/03 01:05:41;;;;;;;101.53;46.63;;;;;;;2.23;100.00;100782.34;4734331;30;20284;-94
2020/12/03 01:08:09;;;;;;;100.63;45.43;;;;;;;2.16;100.00;100771.91;4730507;30;20084;-95
2020/12/03 01:10:36;;;;;;;97.03;44.87;;;;;;;2.30;100.00;100771.66;4722308;30;20061;-94
2020/12/03 01:13:05;;;;;;;93.93;43.93;;;;;;;2.31;100.00;100776.06;4720601;30;20112;-91
2020/12/03 01:15:33;;;;;;;91.17;43.67;;;;;;;2.28;100.00;100769.97;4721021;30;20053;-94
2020/12/03 01:18:01;;;;;;;100.53;46.70;;;;;;;2.16;100.00;100771.00;4721527;30;20053;-93
2020/12/03 01:20:30;;;;;;;96.57;47.77;;;;;;;2.20;100.00;100770.09;4705820;30;20131;-95
2020/12/03 01:22:58;;;;;;;101.57;46.63;;;;;;;2.21;100.00;100760.38;4711071;30;20055;-94
2020/12/03 01:25:26;;;;;;;101.27;46.60;;;;;;;2.21;100.00;100769.19;4692432;30;20111;-94
2020/12/03 01:27:55;;;;;;;96.63;43.70;;;;;;;2.23;100.00;100759.44;4697670;30;20053;-93
2020/12/03 01:30:23;;;;;;;98.00;47.53;;;;;;;2.15;100.00;100756.94;4687612;30;20045;-93
2020/12/03 01:32:51;;;;;;;93.00;44.57;;;;;;;2.19;100.00;100741.91;4708979;30;20053;-95
2020/12/03 01:35:21;;;;;;;99.43;45.77;;;;;;;2.32;100.00;100750.50;4698875;30;20069;-95
2020/12/03 01:37:50;;;;;;;97.38;45.85;;;;;;;2.34;100.00;100739.00;4690881;30;20069;-93
2020/12/03 01:40:21;;;;;;;99.63;46.30;;;;;;;2.25;100.00;100733.03;4699238;30;20057;-93
2020/12/03 01:42:51;;;;;;;96.33;44.63;;;;;;;2.31;100.00;100736.44;4696712;30;20431;-95
2020/12/03 01:45:51;;;;;;;95.33;44.87;;;;;;;2.29;100.00;100735.56;4701384;30;20149;-96
2020/12/03 01:48:24;;;;;;;97.47;46.83;;;;;;;2.22;100.00;100730.44;4705725;30;20045;-95
2020/12/03 01:50:54;;;;;;;104.87;46.73;;;;;;;2.23;100.00;100734.81;4697261;30;20053;-94
2020/12/03 01:53:21;;;;;;;100.17;48.40;;;;;;;2.27;100.00;100733.84;4709003;30;20056;-95
2020/12/03 01:55:51;;;;;;;100.97;47.43;;;;;;;2.22;100.00;100727.78;4694812;30;20136;-95
2020/12/03 01:58:32;;;;;;;102.53;48.03;;;;;;;2.27;100.00;100716.25;4695901;30;20147;-93
2020/12/03 02:01:01;;;;;;;98.13;47.13;;;;;;;2.25;100.00;100718.03;4689562;30;20065;-94
2020/12/03 02:03:29;;;;;;;101.33;45.57;;;;;;;2.30;100.00;100710.88;4697294;30;20046;-93
2020/12/03 02:05:57;;;;;;;100.03;46.70;;;;;;;2.26;100.00;100713.63;4702025;30;20049;-94
2020/12/03 02:08:24;;;;;;;102.93;48.07;;;;;;;2.28;100.00;100712.69;4689848;30;20053;-95
2020/12/03 02:10:53;;;;;;;97.30;47.40;;;;;;;2.29;100.00;100709.16;4697200;30;20061;-94
2020/12/03 02:13:21;;;;;;;103.67;47.33;;;;;;;2.29;100.00;100701.22;4709515;30;20061;-94
2020/12/03 02:15:51;;;;;;;107.20;49.85;;;;;;;2.28;100.00;100699.50;4699761;30;20528;-94
2020/12/03 02:18:18;;;;;;;100.57;48.77;;;;;;;2.30;100.00;100695.03;4700703;30;20064;-94
2020/12/03 02:20:46;;;;;;;103.60;49.63;;;;;;;2.14;100.00;100693.59;4722211;30;20057;-94
2020/12/03 02:23:16;;;;;;;102.67;49.90;;;;;;;2.20;100.00;100690.84;4722020;30;20517;-94
2020/12/03 02:25:44;;;;;;;111.55;52.50;;;;;;;2.16;100.00;100690.03;4732418;30;20484;-90
2020/12/03 02:28:12;;;;;;;109.33;53.77;;;;;;;2.16;100.00;100692.66;4721314;30;20045;-93
2020/12/03 02:30:39;;;;;;;110.50;51.23;;;;;;;2.15;100.00;100690.91;4722852;30;20230;-94
2020/12/03 02:33:06;;;;;;;113.63;50.40;;;;;;;2.26;100.00;100688.06;4719776;30;20149;-92
2020/12/03 02:35:34;;;;;;;109.90;52.57;;;;;;;2.15;100.00;100679.47;4733083;30;20057;-93
2020/12/03 02:38:02;;;;;;;108.50;50.40;;;;;;;2.15;100.00;100674.19;4735092;30;20369;-94
2020/12/03 02:40:29;;;;;;;103.47;49.13;;;;;;;2.18;100.00;100660.94;4721317;30;20056;-93
2020/12/03 02:42:57;;;;;;;104.80;47.97;;;;;;;2.27;100.00;100658.13;4717928;30;20056;-93
2020/12/03 02:45:24;;;;;;;102.83;49.00;;;;;;;2.21;100.00;100649.44;4718462;30;20118;-93
2020/12/03 02:47:51;;;;;;;107.07;50.13;;;;;;;2.24;100.00;100644.97;4720971;30;20506;-93
2020/12/03 02:50:19;;;;;;;102.63;49.20;;;;;;;2.07;100.00;100639.13;4722651;30;20492;-94
2020/12/03 02:52:47;;;;;;;100.33;47.80;;;;;;;2.05;100.00;100633.84;4721905;30;20065;-94
2020/12/03 02:55:15;;;;;;;102.40;49.03;;;;;;;2.12;100.00;100642.53;4736715;30;20395;-94
2020/12/03 02:57:42;;;;;;;101.10;48.77;;;;;;;2.20;100.00;100642.41;4728793;30;20064;-94
2020/12/03 03:00:09;;;;;;;99.37;46.67;;;;;;;2.09;100.00;100642.59;4727974;30;20077;-94
2020/12/03 03:02:37;;;;;;;106.93;50.57;;;;;;;2.08;100.00;100643.50;4718643;30;20483;-94
2020/12/03 03:05:05;;;;;;;99.43;48.23;;;;;;;2.04;100.00;100639.16;4726073;30;20045;-92
2020/12/03 03:07:32;;;;;;;98.73;46.70;;;;;;;2.11;100.00;100632.88;4718754;30;20532;-92
2020/12/03 03:10:00;;;;;;;103.73;47.90;;;;;;;2.05;100.00;100635.63;4736575;30;20434;-92
2020/12/03 03:12:28;;;;;;;104.73;49.90;;;;;;;2.09;100.00;100626.75;4714265;30;20138;-92
2020/12/03 03:14:56;;;;;;;95.73;49.63;;;;;;;2.06;100.00;100622.41;4715442;30;20142;-93
2020/12/03 03:17:23;;;;;;;102.67;48.60;;;;;;;2.09;100.00;100622.34;4723938;30;20057;-93
2020/12/03 03:19:50;;;;;;;103.80;49.20;;;;;;;2.13;100.00;100613.47;4723825;30;20092;-92
2020/12/03 03:22:18;;;;;;;104.73;52.03;;;;;;;2.09;100.00;100601.22;4724201;30;20069;-92
2020/12/03 03:24:45;;;;;;;101.40;48.33;;;;;;;2.07;100.00;100602.16;4729099;30;20049;-91
2020/12/03 03:27:12;;;;;;;97.63;48.77;;;;;;;1.99;100.00;100602.28;4718041;30;20341;-91
2020/12/03 03:29:40;;;;;;;93.03;47.20;;;;;;;2.08;100.00;100603.88;4719353;30;20459;-92
2020/12/03 03:32:08;;;;;;;99.10;48.57;;;;;;;1.86;100.00;100593.72;4725157;30;20095;-93
2020/12/03 03:34:36;;;;;;;95.27;46.43;;;;;;;2.01;100.00;100602.25;4718640;30;20085;-93
2020/12/03 03:37:04;;;;;;;101.20;47.87;;;;;;;1.96;100.00;100604.13;4731408;30;20057;-93
2020/12/03 03:39:31;;;;;;;99.67;47.07;;;;;;;1.93;100.00;100600.63;4732614;30;20045;-93
2020/12/03 03:41:59;;;;;;;95.47;47.80;;;;;;;1.88;100.00;100605.13;4713740;30;20523;-91
2020/12/03 03:44:26;;;;;;;104.63;49.60;;;;;;;1.74;100.00;100609.78;4717811;30;20053;-92
2020/12/03 03:46:54;;;;;;;102.67;47.27;;;;;;;1.74;100.00;100593.94;4725231;30;20047;-93
2020/12/03 03:49:21;;;;;;;94.70;45.37;;;;;;;1.77;100.00;100608.84;4719507;30;20128;-92
2020/12/03 03:51:50;;;;;;;96.60;48.17;;;;;;;1.72;100.00;100605.41;4708720;30;20049;-92
2020/12/03 03:54:17;;;;;;;99.93;47.30;;;;;;;1.68;100.00;100597.53;4722292;30;20491;-93
2020/12/03 03:56:44;;;;;;;90.47;45.30;;;;;;;1.72;100.00;100592.22;4728135;30;20077;-94
2020/12/03 03:59:12;;;;;;;94.60;45.13;;;;;;;1.64;100.00;100603.78;4719279;30;20048;-94
2020/12/03 04:01:39;;;;;;;92.60;44.73;;;;;;;1.70;100.00;100601.94;4721393;30;20048;-94
2020/12/03 04:04:07;;;;;;;104.10;50.70;;;;;;;1.69;100.00;100611.59;4723813;30;20053;-94
2020/12/03 04:06:34;;;;;;;94.63;47.80;;;;;;;1.50;100.00;100597.00;4718596;30;20045;-94
2020/12/03 04:09:03;;;;;;;88.83;43.80;;;;;;;1.46;100.00;100603.22;4732025;30;20056;-95
2020/12/03 04:11:31;;;;;;;90.27;42.60;;;;;;;1.49;100.00;100603.16;4722471;30;20051;-94
2020/12/03 04:13:58;;;;;;;96.40;43.50;;;;;;;1.40;100.00;100598.91;4720811;30;20040;-93
2020/12/03 04:16:25;;;;;;;87.87;45.90;;;;;;;1.27;100.00;100598.22;4734125;30;20067;-93
2020/12/03 04:18:52;;;;;;;88.90;41.47;;;;;;;1.34;100.00;100588.47;4733290;30;20092;-95
2020/12/03 04:21:21;;;;;;;93.47;45.73;;;;;;;1.26;100.00;100604.38;4717613;30;20061;-93
2020/12/03 04:23:48;;;;;;;88.00;43.73;;;;;;;1.25;100.00;100600.00;4718745;30;20055;-90
2020/12/03 04:26:16;;;;;;;91.97;46.10;;;;;;;1.27;100.00;100587.69;4735460;30;20052;-92
2020/12/03 04:28:43;;;;;;;93.53;44.27;;;;;;;1.25;100.00;100572.75;4736202;30;20052;-93
2020/12/03 04:31:10;;;;;;;97.77;43.90;;;;;;;1.28;100.00;100578.00;4716835;30;20057;-92
2020/12/03 04:33:38;;;;;;;95.13;47.17;;;;;;;1.29;100.00;100577.97;4733651;30;20072;-91
2020/12/03 04:36:05;;;;;;;85.60;41.20;;;;;;;1.37;100.00;100570.81;4746082;30;20587;-91
2020/12/03 04:38:34;;;;;;;88.93;42.93;;;;;;;1.30;100.00;100566.53;4747210;30;20069;-91
2020/12/03 04:41:01;;;;;;;88.97;44.97;;;;;;;1.28;100.00;100563.03;4735298;30;21355;-91
2020/12/03 04:43:33;;;;;;;92.83;45.40;;;;;;;1.34;100.00;100570.88;4735303;30;20076;-92
2020/12/03 04:46:06;;;;;;;95.70;45.73;;;;;;;1.46;100.00;100577.69;4728962;30;20041;-92
2020/12/03 04:49:08;;;;;;;98.13;44.20;;;;;;;1.34;100.00;100559.44;4722941;30;20048;-92
2020/12/03 04:52:22;;;;;;;95.10;44.73;;;;;;;1.32;100.00;100559.44;4718778;30;20496;-93
2020/12/03 04:54:59;;;;;;;96.70;44.50;;;;;;;1.29;100.00;100556.84;4723736;30;20110;-91
2020/12/03 04:57:34;;;;;;;95.30;45.10;;;;;;;1.25;100.00;100557.81;4717603;30;20053;-90
2020/12/03 05:00:12;;;;;;;94.13;44.60;;;;;;;1.19;100.00;100557.91;4720507;30;20261;-91
2020/12/03 05:03:33;;;;;;;97.07;47.53;;;;;;;1.16;100.00;100557.97;4726348;30;20528;-86
2020/12/03 05:06:20;;;;;;;95.60;45.25;;;;;;;1.19;100.00;100558.78;4683613;30;20059;-88
2020/12/03 05:08:53;;;;;;;95.90;45.57;;;;;;;1.22;100.00;100559.63;4709532;30;20040;-84
2020/12/03 05:11:26;;;;;;;89.87;42.80;;;;;;;1.30;100.00;100565.63;4715494;30;20052;-87
2020/12/03 05:13:59;;;;;;;94.90;45.27;;;;;;;1.22;100.00;100556.97;4714409;30;20511;-84
2020/12/03 05:16:34;;;;;;;98.53;48.03;;;;;;;1.12;100.00;100553.66;4717938;30;20048;-84
2020/12/03 05:19:03;;;;;;;93.93;44.17;;;;;;;1.18;100.00;100551.75;4713071;30;20438;-85
2020/12/03 05:21:33;;;;;;;94.03;45.53;;;;;;;1.14;100.00;100554.47;4711224;30;20045;-88
2020/12/03 05:24:00;;;;;;;90.95;45.00;;;;;;;1.07;100.00;100558.09;4720154;30;20052;-86
2020/12/03 05:26:32;;;;;;;92.37;44.23;;;;;;;1.16;100.00;100555.34;4718980;30;20049;-85
2020/12/03 05:28:59;;;;;;;;;;;;;;;1.07;100.00;100543.16;4731061;30;20037;-87
2020/12/03 05:31:34;;;;;;;90.77;43.33;;;;;;;1.00;100.00;100546.78;4718010;30;20007;-87
2020/12/03 05:34:08;;;;;;;95.57;46.67;;;;;;;1.14;100.00;100538.66;4722208;30;20152;-89
2020/12/03 05:36:39;;;;;;;93.20;44.67;;;;;;;1.04;100.00;100537.91;4716150;30;20048;-87
2020/12/03 05:39:13;;;;;;;90.13;44.37;;;;;;;1.07;100.00;100537.00;4720792;30;20448;-89
2020/12/03 05:41:46;;;;;;;99.10;46.27;;;;;;;0.95;100.00;100532.81;4717057;30;20063;-89
2020/12/03 05:44:27;;;;;;;99.97;46.73;;;;;;;1.04;100.00;100532.63;4721833;30;20033;-88
2020/12/03 05:46:55;;;;;;;;;;;;;;;1.02;100.00;100525.66;4729581;30;20416;-86
2020/12/03 05:49:25;;;;;;;92.97;42.17;;;;;;;1.00;100.00;100525.69;4729151;30;19934;-86
2020/12/03 05:52:16;;;;;;;94.60;45.40;;;;;;;1.07;100.00;100515.91;4720504;30;20123;-87
2020/12/03 05:54:57;;;;;;;99.30;45.50;;;;;;;1.07;100.00;100515.91;4723118;30;20136;-82
2020/12/03 05:57:28;;;;;;;107.83;46.37;;;;;;;1.10;100.00;100518.50;4720316;30;20080;-88
2020/12/03 06:00:09;;;;;;;91.33;42.60;;;;;;;1.12;100.00;100508.81;4715174;30;20045;-89
2020/12/03 06:02:45;;;;;;;90.85;43.78;;;;;;;0.90;100.00;100508.25;4712223;30;20181;-86
2020/12/03 06:05:19;;;;;;;90.30;43.10;;;;;;;0.91;100.00;100505.63;4707060;30;20049;-88
2020/12/03 06:08:01;;;;;;;88.80;42.97;;;;;;;0.86;100.00;100517.97;4717887;30;20571;-86
2020/12/03 06:10:40;;;;;;;91.20;41.53;;;;;;;1.00;100.00;100519.53;4716730;30;20135;-86
2020/12/03 06:13:28;;;;;;;89.83;42.17;;;;;;;0.94;100.00;100521.38;4719026;30;21257;-85
2020/12/03 06:16:00;;;;;;;92.40;44.80;;;;;;;0.79;100.00;100524.22;4704003;30;20061;-84
2020/12/03 06:18:51;;;;;;;87.37;43.33;;;;;;;0.87;100.00;100539.97;4699799;30;20524;-88
2020/12/03 06:21:34;;;;;;;94.47;42.93;;;;;;;0.93;100.00;100527.53;4695034;30;20100;-91
2020/12/03 06:24:29;;;;;;;92.10;42.60;;;;;;;0.86;100.00;100515.34;4694002;30;20045;-90
2020/12/03 06:27:15;;;;;;;89.17;41.83;;;;;;;0.86;100.00;100511.84;4678219;30;20263;-89
2020/12/03 06:29:58;;;;;;;86.93;39.27;;;;;;;0.93;100.00;100514.34;4695825;30;20055;-90
2020/12/03 06:32:47;;;;;;;87.60;39.73;;;;;;;0.91;100.00;100516.16;4698843;30;20057;-91
2020/12/03 06:35:25;;;;;;;86.87;39.93;;;;;;;0.90;100.00;100508.25;4699820;30;20049;-90
2020/12/03 06:38:02;;;;;;;90.53;42.00;;;;;;;0.86;100.00;100512.69;4696085;30;20049;-87
2020/12/03 06:40:34;;;;;;;80.53;38.87;;;;;;;0.92;100.00;100512.63;4680342;30;20053;-93
2020/12/03 06:43:10;;;;;;;81.70;38.63;;;;;;;0.75;100.00;100514.63;4670541;30;20045;-88
2020/12/03 06:45:51;;;;;;;86.23;40.83;;;;;;;0.70;100.00;100509.44;4677862;30;20539;-90
2020/12/03 06:48:43;;;;;;;94.07;40.80;;;;;;;0.79;100.00;100500.50;4690038;30;20175;-91
2020/12/03 06:51:37;;;;;;;87.17;41.03;;;;;;;0.69;100.00;100506.84;4696225;30;20057;-90
2020/12/03 06:54:23;;;;;;;84.63;38.80;;;;;;;0.86;100.00;100503.94;4700432;30;20045;-90
2020/12/03 06:57:32;;;;;;;84.60;39.00;;;;;;;0.83;100.00;100501.34;4702459;30;20621;-89
2020/12/03 07:00:39;;;;;;;85.07;36.83;;;;;;;0.75;100.00;100496.19;4695130;30;20048;-92
2020/12/03 07:03:42;;;;;;;98.57;40.20;;;;;;;0.77;100.00;100498.81;4687134;30;20077;-88
2020/12/03 07:06:34;;;;;;;88.63;40.33;;;;;;;0.75;100.00;100487.41;4698890;30;20415;-90
2020/12/03 07:09:43;;;;;;;86.03;40.13;;;;;;;0.78;100.00;100495.28;4684765;30;20607;-88
2020/12/03 07:12:41;;;;;;;88.60;39.67;;;;;;;0.59;100.00;100494.69;4697065;30;20505;-85
2020/12/03 07:15:39;;;;;;;84.90;37.93;;;;;;;0.63;100.00;100507.78;4699318;30;20132;-86
2020/12/03 07:18:42;;;;;;;93.13;40.83;;;;;;;0.67;100.00;100505.97;4700783;30;20072;-91
2020/12/03 07:22:02;;;;;;;84.40;40.60;;;;;;;0.61;100.00;100503.41;4693643;30;20056;-86
2020/12/03 07:24:32;;;;;;;85.40;38.43;;;;;;;0.65;100.00;100503.38;4626074;30;20546;-86
2020/12/03 07:27:47;;;;;;;93.23;41.33;;;;;;;0.69;100.00;100501.56;4621582;30;20529;-86
2020/12/03 07:30:33;;;;;;;81.30;36.17;;;;;;;0.65;100.00;100503.38;4684846;30;20056;-87
2020/12/03 07:33:04;;;;;;;82.80;36.07;;;;;;;0.51;100.00;100501.84;4683638;30;20637;-86
2020/12/03 07:35:39;;;;;;;87.53;40.00;;;;;;;0.58;100.00;100498.22;4700142;30;20121;-86
2020/12/03 07:38:16;;;;;;;85.47;39.50;;;;;;;0.59;100.00;100497.31;4685789;30;20067;-87
2020/12/03 07:40:44;;;;;;;82.00;38.73;;;;;;;0.51;100.00;100493.94;4694402;30;20060;-87
2020/12/03 07:43:18;;;;;;;80.50;36.80;;;;;;;0.61;100.00;100490.25;4677910;30;20420;-86
2020/12/03 07:45:49;;;;;;;78.53;33.93;;;;;;;0.56;100.00;100492.09;4696976;30;20057;-86
2020/12/03 07:48:20;;;;;;;77.72;35.20;;;;;;;0.51;100.00;100486.03;4683502;30;20053;-87
2020/12/03 07:51:09;;;;;;;85.97;37.30;;;;;;;0.45;100.00;100487.84;4698427;30;20134;-85
2020/12/03 07:53:37;;;;;;;79.80;36.07;;;;;;;0.54;100.00;100486.84;4694065;30;20060;-86
2020/12/03 07:56:32;;;;;;;82.70;36.33;;;;;;;0.50;100.00;100481.63;4691012;30;20139;-85
2020/12/03 07:59:34;;;;;;;80.70;37.50;;;;;;;0.48;100.00;100472.00;4702049;30;20045;-85
2020/12/03 08:02:02;;;;;;;82.00;35.23;;;;;;;0.53;100.00;100476.31;4612668;30;20098;-86
2020/12/03 08:04:35;;;;;;;84.77;36.17;;;;;;;0.57;100.00;100473.63;4685580;30;20499;-86
2020/12/03 08:07:34;;;;;;;84.10;39.33;;;;;;;0.44;100.00;100478.22;4695988;30;20075;-86
2020/12/03 08:10:04;;;;;;;81.43;34.90;;;;;;;0.50;100.00;100471.09;4664619;30;20056;-85
2020/12/03 08:12:31;;;;;;;79.13;34.77;;;;;;;0.41;100.00;100475.59;4680895;30;20071;-86
2020/12/03 08:14:59;;;;;;;78.37;35.33;;;;;;;0.37;100.00;100466.00;4683856;30;20115;-85
2020/12/03 08:17:47;;;;;;;83.53;35.33;;;;;;;0.52;100.00;100466.69;4697469;30;20067;-86
2020/12/03 08:20:40;;;;;;;83.33;35.13;;;;;;;0.51;100.00;100467.59;4700714;30;20057;-86
2020/12/03 08:23:11;;;;;;;80.80;37.23;;;;;;;0.37;100.00;100465.16;4693471;30;21147;-86
2020/12/03 08:25:44;;;;;;;86.80;37.90;;;;;;;0.29;100.00;100465.25;4695734;30;20061;-85
2020/12/03 08:28:21;;;;;;;83.63;40.00;;;;;;;0.35;100.00;100457.25;4685069;30;20068;-85
2020/12/03 08:30:51;;;;;;;76.43;35.83;;;;;;;0.39;100.00;100453.69;4699863;30;20555;-86
2020/12/03 08:33:26;;;;;;;84.43;36.37;;;;;;;0.50;100.00;100450.88;4699866;30;20063;-86
2020/12/03 08:35:56;;;;;;;74.40;35.47;;;;;;;0.53;100.00;100448.22;4695258;30;20685;-86
2020/12/03 08:38:27;;;;;;;78.57;35.50;;;;;;;0.60;100.00;100443.72;4695447;30;20055;-86
2020/12/03 08:40:56;;;;;;;76.67;36.50;;;;;;;0.46;100.00;100434.25;4681721;30;20073;-87
2020/12/03 08:43:23;;;;;;;83.00;37.50;;;;;;;0.45;100.00;100444.84;4682502;30;20064;-86
2020/12/03 08:46:00;;;;;;;88.37;39.50;;;;;;;0.48;100.00;100447.44;4698669;30;20057;-86
2020/12/03 08:48:32;;;;;;;85.63;39.80;;;;;;;0.47;100.00;100435.16;4695847;30;20061;-87
2020/12/03 08:51:02;;;;;;;78.17;36.00;;;;;;;0.51;100.00;100441.25;4696192;30;20135;-87
2020/12/03 08:53:31;;;;;;;80.00;38.05;;;;;;;0.52;100.00;100427.19;4677936;30;20053;-87
2020/12/03 08:56:11;;;;;;;72.60;34.47;;;;;;;0.60;100.00;100427.91;4693365;30;20517;-86
2020/12/03 08:58:43;;;;;;;77.20;33.47;;;;;;;0.46;100.00;100415.81;4695624;30;20046;-86
2020/12/03 09:01:12;;;;;;;73.30;34.07;;;;;;;0.51;100.00;100422.81;4693780;30;20493;-86
2020/12/03 09:03:42;;;;;;;75.83;35.77;;;;;;;0.50;100.00;100427.19;4692248;30;20041;-88
2020/12/03 09:06:10;;;;;;;72.80;31.43;;;;;;;0.41;100.00;100414.16;4693161;30;20703;-87
2020/12/03 09:08:37;;;;;;;81.60;35.10;;;;;;;0.46;100.00;100415.81;4698699;30;20045;-87
2020/12/03 09:11:06;;;;;;;71.07;32.20;;;;;;;0.44;100.00;100415.00;4697201;30;20095;-86
2020/12/03 09:13:34;;;;;;;71.77;31.80;;;;;;;0.50;100.00;100407.88;4683207;30;20515;-87
2020/12/03 09:16:02;;;;;;;78.33;35.37;;;;;;;0.59;100.00;100399.84;4698447;30;21388;-87
2020/12/03 09:18:29;;;;;;;81.03;36.00;;;;;;;0.55;100.00;100408.69;4695417;30;20519;-86
2020/12/03 09:21:00;;;;;;;75.53;34.20;;;;;;;0.54;100.00;100402.56;4675981;30;20053;-87
2020/12/03 09:23:31;;;;;;;75.73;34.33;;;;;;;0.54;100.00;100399.03;4683443;30;20515;-87
2020/12/03 09:25:59;;;;;;;79.20;35.25;;;;;;;0.56;100.00;100392.00;4703963;30;20041;-87
2020/12/03 09:28:26;;;;;;;79.33;34.57;;;;;;;0.56;100.00;100386.72;4686163;30;20058;-89
2020/12/03 09:30:54;;;;;;;75.50;35.10;;;;;;;0.48;100.00;100373.66;4706164;30;20041;-86
2020/12/03 09:33:23;;;;;;;72.93;33.03;;;;;;;0.61;100.00;100379.59;4683622;30;20373;-88
2020/12/03 09:35:52;;;;;;;77.03;36.40;;;;;;;0.49;100.00;100359.59;4708974;30;20110;-86
2020/12/03 09:38:20;;;;;;;69.27;32.83;;;;;;;0.59;100.00;100360.31;4697986;30;20049;-86
2020/12/03 09:40:49;;;;;;;72.60;33.77;;;;;;;0.54;100.00;100356.88;4704055;30;20057;-89
2020/12/03 09:43:20;;;;;;;75.67;33.23;;;;;;;0.60;100.00;100347.13;4703075;30;20420;-86
2020/12/03 09:45:54;;;;;;;70.17;32.60;;;;;;;0.63;100.00;100338.28;4695402;30;20685;-88
2020/12/03 09:48:25;;;;;;;72.60;31.20;;;;;;;0.63;100.00;100326.00;4700537;30;20136;-86
2020/12/03 09:50:53;;;;;;;69.47;30.93;;;;;;;0.66;100.00;100319.81;4699122;30;20046;-86
2020/12/03 09:53:22;;;;;;;69.83;29.83;;;;;;;0.62;100.00;100324.25;4697256;30;20052;-86
2020/12/03 09:55:49;;;;;;;65.83;30.90;;;;;;;0.68;100.00;100315.38;4704221;30;20601;-86
2020/12/03 09:58:20;;;;;;;73.97;32.53;;;;;;;0.69;100.00;100319.75;4700813;30;20053;-86
2020/12/03 10:00:51;;;;;;;67.53;33.23;;;;;;;0.63;100.00;100309.31;4701468;30;20151;-86
2020/12/03 10:03:35;;;;;;;;;;;;;;;0.67;100.00;100311.88;4681989;30;20063;-86
2020/12/03 10:06:08;;;;;;;70.50;31.53;;;;;;;0.73;100.00;100305.63;4704083;30;19927;-88
2020/12/03 10:08:54;;;;;;;77.77;33.70;;;;;;;0.74;100.00;100309.13;4683256;30;20072;-87
2020/12/03 10:11:57;;;;;;;67.07;31.00;;;;;;;0.69;100.00;100285.50;4704231;30;20642;-87
2020/12/03 10:14:53;;;;;;;79.97;33.77;;;;;;;0.79;100.00;100284.41;4676218;30;20486;-86
2020/12/03 10:17:25;;;;;;;76.90;34.17;;;;;;;0.69;100.00;100277.59;4693385;30;20532;-86
2020/12/03 10:19:53;;;;;;;68.10;31.30;;;;;;;0.70;100.00;100271.44;4734188;30;20057;-86
2020/12/03 10:22:30;;;;;;;66.73;31.57;;;;;;;0.76;100.00;100283.59;4723294;30;20143;-86
2020/12/03 10:25:11;;;;;;;70.50;33.47;;;;;;;0.75;100.00;100274.84;4727481;30;20115;-87
2020/12/03 10:27:50;;;;;;;69.22;32.85;;;;;;;0.79;100.00;100268.59;4722958;30;20044;-86
2020/12/03 10:30:31;;;;;;;73.53;32.17;;;;;;;0.79;100.00;100259.84;4717507;30;20417;-87
2020/12/03 10:33:00;;;;;;;48.45;24.17;;;;;;;0.84;100.00;100239.53;4726810;30;20041;-88
2020/12/03 10:35:29;;;;;;;65.90;29.80;;;;;;;0.82;100.00;100244.84;4724604;30;20088;-88
2020/12/03 10:38:00;;;;;;;66.67;32.03;;;;;;;0.77;100.00;100238.78;4734343;30;20459;-87
2020/12/03 10:40:29;;;;;;;70.93;33.75;;;;;;;0.84;100.00;100234.28;4724386;30;20053;-86
2020/12/03 10:43:17;;;;;;;65.40;28.93;;;;;;;0.82;100.00;100221.09;4719053;30;20113;-86
2020/12/03 10:45:50;;;;;;;57.53;28.63;;;;;;;0.80;100.00;100222.06;4720045;30;20033;-87
2020/12/03 10:48:21;;;;;;;61.87;30.10;;;;;;;0.75;100.00;100214.22;4738192;30;20088;-87
2020/12/03 10:50:58;;;;;;;70.07;32.07;;;;;;;0.82;100.00;100221.09;4732368;30;20412;-86
2020/12/03 10:53:28;;;;;;;69.50;30.67;;;;;;;0.79;100.00;100222.94;4721296;30;20057;-86
2020/12/03 10:55:58;;;;;;;;;;;;;;;0.79;100.00;100215.03;4711693;30;20045;-88
2020/12/03 10:58:31;;;;;;;61.60;29.77;;;;;;;0.82;100.00;100218.47;4729636;30;19946;-87
2020/12/03 11:01:05;;;;;;;74.47;31.23;;;;;;;0.88;100.00;100209.59;4737871;30;20598;-86
2020/12/03 11:03:34;;;;;;;68.40;30.27;;;;;;;0.91;100.00;100215.66;4723336;30;20036;-87
2020/12/03 11:06:01;;;;;;;71.30;33.10;;;;;;;0.87;100.00;100215.78;4728067;30;20049;-87
2020/12/03 11:08:36;;;;;;;67.97;32.90;;;;;;;0.81;100.00;100203.56;4716963;30;20401;-86
2020/12/03 11:11:07;;;;;;;75.77;35.93;;;;;;;0.83;100.00;100199.16;4713775;30;20051;-85
2020/12/03 11:13:34;;;;;;;;;;;;;;;1.01;100.00;100199.66;4715260;30;20049;-87
2020/12/03 11:16:04;;;;;;;77.40;36.97;;;;;;;0.85;100.00;100199.09;4735089;30;19926;-86
2020/12/03 11:18:40;;;;;;;76.15;36.67;;;;;;;0.84;100.00;100198.25;4729377;30;20060;-86
2020/12/03 11:21:15;;;;;;;86.70;38.97;;;;;;;0.80;100.00;100167.59;4721359;30;20049;-87
2020/12/03 11:23:57;;;;;;;87.70;38.37;;;;;;;0.82;100.00;100180.72;4716249;30;20060;-87
2020/12/03 11:26:28;;;;;;;85.87;38.77;;;;;;;0.75;100.00;100181.75;4716138;30;20154;-86
2020/12/03 11:28:55;;;;;;;92.27;39.93;;;;;;;0.80;100.00;100179.91;4728025;30;20508;-86
2020/12/03 11:31:31;;;;;;;83.93;37.23;;;;;;;0.85;100.00;100170.97;4725326;30;20057;-86
2020/12/03 11:33:58;;;;;;;92.67;40.83;;;;;;;0.77;100.00;100175.56;4721411;30;20143;-86
2020/12/03 11:36:32;;;;;;;94.07;43.07;;;;;;;0.88;100.00;100167.44;4716127;30;20118;-86
2020/12/03 11:39:01;;;;;;;94.63;42.37;;;;;;;0.82;100.00;100163.13;4715835;30;20052;-86